createdAt,value
2018-02-05T00:00:45.429Z,33.17
2018-02-05T00:03:12.884Z,25.73
2018-02-05T00:05:40.359Z,27.57
2018-02-05T00:08:08.136Z,25.10
2018-02-05T00:10:35.604Z,24.00
2018-02-05T00:13:03.070Z,23.73
2018-02-05T00:15:30.812Z,22.90
2018-02-05T00:17:58.265Z,25.17
2018-02-05T00:20:26.360Z,23.00
2018-02-05T00:22:54.150Z,20.37
2018-02-05T00:25:21.608Z,18.40
2018-02-05T00:27:49.068Z,20.07
2018-02-05T00:30:17.084Z,23.17
2018-02-05T00:32:44.552Z,22.60
2018-02-05T00:35:12.023Z,22.77
2018-02-05T00:37:39.769Z,20.77
2018-02-05T00:40:07.235Z,20.00
2018-02-05T00:42:34.702Z,22.57
2018-02-05T00:45:02.481Z,18.87
2018-02-05T00:47:29.949Z,21.23
2018-02-05T00:49:57.421Z,18.47
2018-02-05T00:52:25.463Z,17.97
2018-02-05T00:54:52.933Z,17.27
2018-02-05T00:57:20.441Z,15.67
2018-02-05T00:59:48.154Z,15.20
2018-02-05T01:02:15.985Z,13.40
2018-02-05T01:04:43.452Z,15.40
2018-02-05T01:07:11.388Z,14.52
2018-02-05T01:09:38.868Z,15.27
2018-02-05T01:12:06.336Z,14.33
2018-02-05T01:14:34.133Z,16.17
2018-02-05T01:17:01.600Z,15.70
2018-02-05T01:19:29.066Z,15.30
2018-02-05T01:21:57.109Z,14.38
2018-02-05T01:24:24.582Z,13.95
2018-02-05T01:26:52.057Z,14.43
2018-02-05T01:29:19.820Z,14.93
2018-02-05T01:31:47.283Z,14.73
2018-02-05T01:34:14.752Z,15.23
2018-02-05T01:36:42.500Z,14.63
2018-02-05T01:39:09.972Z,13.02
2018-02-05T01:41:37.428Z,13.53
2018-02-05T01:44:05.110Z,15.03
2018-02-05T01:46:32.601Z,13.80
2018-02-05T01:49:00.058Z,15.80
2018-02-05T01:51:27.868Z,13.35
2018-02-05T01:53:55.317Z,14.00
2018-02-05T01:56:22.790Z,16.37
2018-02-05T01:58:50.606Z,15.05
2018-02-05T02:01:18.049Z,15.52
2018-02-05T02:03:45.520Z,16.27
2018-02-05T02:06:13.241Z,14.20
2018-02-05T02:08:40.715Z,13.35
2018-02-05T02:11:08.175Z,13.80
2018-02-05T02:13:35.940Z,12.40
2018-02-05T02:16:03.420Z,11.85
2018-02-05T02:18:30.880Z,11.83
2018-02-05T02:20:58.934Z,13.10
2018-02-05T02:23:27.398Z,11.97
2018-02-05T02:25:54.870Z,13.60
2018-02-05T02:28:22.836Z,12.77
2018-02-05T02:30:50.292Z,10.93
2018-02-05T02:33:17.767Z,10.65
2018-02-05T02:35:45.509Z,11.30
2018-02-05T02:38:12.973Z,10.85
2018-02-05T02:40:40.433Z,11.03
2018-02-05T02:43:08.165Z,10.90
2018-02-05T02:45:35.625Z,10.80
2018-02-05T02:48:03.097Z,10.30
2018-02-05T02:50:31.013Z,12.50
2018-02-05T02:52:58.484Z,12.70
2018-02-05T02:55:25.943Z,11.77
2018-02-05T02:57:53.908Z,11.48
2018-02-05T03:00:21.377Z,12.65
2018-02-05T03:02:48.847Z,13.03
2018-02-05T03:05:16.596Z,12.55
2018-02-05T03:07:44.072Z,12.00
2018-02-05T03:10:11.555Z,13.13
2018-02-05T03:12:39.589Z,10.02
2018-02-05T03:15:07.052Z,11.37
2018-02-05T03:17:34.572Z,11.30
2018-02-05T03:20:02.264Z,10.13
2018-02-05T03:22:29.733Z,9.68
2018-02-05T03:24:57.878Z,9.60
2018-02-05T03:27:25.788Z,10.35
2018-02-05T03:29:53.275Z,12.05
2018-02-05T03:32:20.742Z,11.93
2018-02-05T03:34:48.568Z,11.18
2018-02-05T03:37:16.052Z,12.32
2018-02-05T03:39:43.517Z,8.95
2018-02-05T03:42:11.864Z,10.02
2018-02-05T03:44:39.334Z,9.80
2018-02-05T03:47:06.855Z,9.60
2018-02-05T03:49:34.561Z,10.32
2018-02-05T03:52:02.028Z,9.50
2018-02-05T03:54:29.494Z,9.73
2018-02-05T03:56:57.548Z,9.82
2018-02-05T03:59:25.020Z,9.50
2018-02-05T04:01:52.484Z,10.85
2018-02-05T04:04:20.252Z,10.80
2018-02-05T04:06:53.200Z,9.07
2018-02-05T04:09:20.677Z,9.80
2018-02-05T04:11:48.447Z,13.13
2018-02-05T04:14:15.925Z,12.13
2018-02-05T04:16:43.392Z,10.77
2018-02-05T04:19:11.132Z,9.43
2018-02-05T04:21:38.594Z,10.87
2018-02-05T04:24:06.060Z,11.57
2018-02-05T04:26:35.996Z,11.00
2018-02-05T04:29:03.462Z,10.90
2018-02-05T04:31:30.929Z,15.95
2018-02-05T04:33:58.961Z,12.73
2018-02-05T04:36:26.510Z,14.25
2018-02-05T04:38:53.977Z,13.98
2018-02-05T04:41:21.956Z,11.75
2018-02-05T04:43:49.428Z,10.15
2018-02-05T04:46:16.907Z,10.55
2018-02-05T04:48:44.657Z,12.20
2018-02-05T04:51:12.129Z,11.25
2018-02-05T04:53:39.601Z,12.45
2018-02-05T04:56:07.385Z,11.40
2018-02-05T04:58:34.851Z,11.80
2018-02-05T05:01:02.320Z,11.60
2018-02-05T05:03:30.052Z,12.45
2018-02-05T05:05:57.519Z,12.37
2018-02-05T05:08:24.994Z,13.23
2018-02-05T05:10:53.021Z,12.93
2018-02-05T05:13:20.492Z,13.43
2018-02-05T05:15:47.957Z,12.90
2018-02-05T05:18:16.009Z,11.60
2018-02-05T05:20:43.477Z,12.20
2018-02-05T05:23:10.948Z,13.43
2018-02-05T05:25:38.698Z,13.48
2018-02-05T05:28:06.866Z,14.00
2018-02-05T05:30:34.337Z,13.18
2018-02-05T05:33:02.070Z,11.88
2018-02-05T05:35:29.549Z,14.15
2018-02-05T05:37:57.025Z,12.73
2018-02-05T05:40:24.713Z,11.45
2018-02-05T05:42:52.184Z,11.48
2018-02-05T05:45:19.660Z,12.32
2018-02-05T05:47:47.343Z,12.40
2018-02-05T05:50:14.809Z,12.77
2018-02-05T05:52:42.273Z,12.88
2018-02-05T05:55:10.383Z,13.13
2018-02-05T05:57:37.860Z,15.20
2018-02-05T06:00:05.324Z,15.98
2018-02-05T06:02:33.363Z,15.18
2018-02-05T06:05:00.832Z,15.82
2018-02-05T06:07:28.316Z,19.83
2018-02-05T06:09:56.052Z,19.20
2018-02-05T06:12:23.521Z,14.98
2018-02-05T06:14:50.992Z,18.50
2018-02-05T06:17:18.796Z,14.90
2018-02-05T06:19:46.277Z,17.77
2018-02-05T06:22:13.745Z,16.65
2018-02-05T06:24:41.674Z,16.40
2018-02-05T06:27:09.136Z,15.80
2018-02-05T06:29:37.044Z,16.98
2018-02-05T06:32:04.726Z,16.57
2018-02-05T06:34:32.196Z,15.90
2018-02-05T06:36:59.722Z,17.95
2018-02-05T06:39:27.653Z,15.25
2018-02-05T06:41:55.105Z,12.93
2018-02-05T06:44:22.568Z,15.43
2018-02-05T06:46:50.409Z,14.68
2018-02-05T06:49:17.877Z,15.50
2018-02-05T06:51:57.529Z,13.10
2018-02-05T06:54:36.720Z,14.17
2018-02-05T06:57:04.512Z,14.37
2018-02-05T06:59:31.956Z,13.27
2018-02-05T07:01:59.404Z,13.53
2018-02-05T07:04:27.204Z,13.07
2018-02-05T07:06:54.660Z,13.33
2018-02-05T07:09:22.125Z,13.38
2018-02-05T07:11:50.204Z,14.43
2018-02-05T07:14:17.653Z,14.30
2018-02-05T07:16:45.133Z,14.32
2018-02-05T07:19:12.896Z,12.73
2018-02-05T07:21:40.349Z,14.33
2018-02-05T07:24:07.801Z,13.03
2018-02-05T07:26:35.597Z,12.50
2018-02-05T07:29:03.048Z,13.37
2018-02-05T07:31:33.087Z,14.83
2018-02-05T07:34:01.020Z,15.10
2018-02-05T07:36:28.472Z,12.60
2018-02-05T07:38:55.920Z,14.73
2018-02-05T07:41:24.008Z,15.60
2018-02-05T07:43:51.458Z,16.33
2018-02-05T07:46:18.917Z,17.47
2018-02-05T07:48:46.701Z,17.37
2018-02-05T07:51:14.147Z,18.40
2018-02-05T07:53:41.602Z,16.40
2018-02-05T07:56:09.389Z,17.80
2018-02-05T07:58:36.841Z,17.80
2018-02-05T08:01:04.286Z,15.87
2018-02-05T08:03:32.071Z,16.90
2018-02-05T08:05:59.519Z,15.00
2018-02-05T08:08:26.972Z,15.53
2018-02-05T08:10:54.772Z,16.30
2018-02-05T08:13:22.236Z,16.00
2018-02-05T08:15:49.707Z,16.03
2018-02-05T08:18:17.459Z,17.17
2018-02-05T08:20:44.915Z,15.87
2018-02-05T08:23:13.245Z,15.57
2018-02-05T08:25:41.066Z,17.37
2018-02-05T08:28:08.522Z,17.60
2018-02-05T08:30:35.989Z,17.90
2018-02-05T08:33:04.128Z,16.37
2018-02-05T08:35:31.589Z,17.17
2018-02-05T08:37:59.052Z,16.57
2018-02-05T08:40:26.736Z,16.67
2018-02-05T08:42:54.199Z,16.13
2018-02-05T08:45:21.673Z,17.73
2018-02-05T08:47:49.433Z,17.37
2018-02-05T08:50:16.902Z,16.67
2018-02-05T08:52:44.362Z,17.17
2018-02-05T08:55:12.105Z,18.93
2018-02-05T08:57:39.949Z,16.97
2018-02-05T09:00:07.408Z,16.90
2018-02-05T09:02:35.120Z,16.43
2018-02-05T09:05:03.104Z,16.70
2018-02-05T09:07:30.555Z,17.40
2018-02-05T09:09:58.272Z,17.83
2018-02-05T09:12:25.734Z,17.80
2018-02-05T09:14:53.217Z,17.90
2018-02-05T09:17:21.102Z,17.60
2018-02-05T09:19:48.554Z,17.60
2018-02-05T09:22:16.030Z,16.43
2018-02-05T09:24:44.089Z,17.97
2018-02-05T09:27:11.535Z,17.87
2018-02-05T09:29:38.980Z,19.40
2018-02-05T09:32:08.004Z,16.23
2018-02-05T09:34:36.177Z,18.03
2018-02-05T09:37:03.629Z,17.80
2018-02-05T09:39:31.615Z,17.73
2018-02-05T09:41:59.060Z,18.33
2018-02-05T09:44:26.512Z,17.20
2018-02-05T09:46:54.297Z,18.50
2018-02-05T09:49:21.762Z,19.20
2018-02-05T09:51:49.224Z,17.70
2018-02-05T09:54:16.992Z,18.00
2018-02-05T09:56:44.456Z,17.63
2018-02-05T09:59:11.915Z,16.63
2018-02-05T10:01:39.688Z,17.37
2018-02-05T10:04:07.140Z,17.43
2018-02-05T10:06:34.593Z,17.07
2018-02-05T10:09:02.367Z,17.23
2018-02-05T10:11:29.821Z,16.77
2018-02-05T10:13:57.273Z,19.50
2018-02-05T10:16:25.056Z,17.63
2018-02-05T10:18:52.540Z,17.57
2018-02-05T10:21:19.982Z,16.40
2018-02-05T10:23:47.734Z,18.37
2018-02-05T10:26:15.181Z,16.60
2018-02-05T10:28:42.633Z,17.47
2018-02-05T10:31:10.436Z,18.07
2018-02-05T10:33:37.889Z,16.13
2018-02-05T10:36:06.037Z,15.63
2018-02-05T10:38:33.990Z,20.97
2018-02-05T10:41:01.438Z,18.07
2018-02-05T10:43:28.895Z,18.40
2018-02-05T10:45:56.720Z,18.50
2018-02-05T10:48:24.177Z,17.70
2018-02-05T10:50:51.624Z,17.60
2018-02-05T10:53:19.413Z,17.93
2018-02-05T10:55:46.869Z,16.97
2018-02-05T10:58:14.316Z,16.50
2018-02-05T11:00:42.085Z,16.33
2018-02-05T11:03:09.531Z,17.80
2018-02-05T11:05:36.980Z,16.60
2018-02-05T11:08:04.782Z,17.50
2018-02-05T11:10:32.235Z,14.43
2018-02-05T11:12:59.688Z,14.43
2018-02-05T11:15:27.466Z,14.20
2018-02-05T11:17:54.926Z,14.93
2018-02-05T11:20:22.385Z,15.10
2018-02-05T11:22:50.155Z,14.73
2018-02-05T11:25:17.612Z,15.00
2018-02-05T11:27:45.065Z,14.47
2018-02-05T11:30:12.837Z,15.10
2018-02-05T11:32:40.300Z,16.57
2018-02-05T11:35:07.745Z,18.20
2018-02-05T11:37:35.520Z,15.33
2018-02-05T11:40:02.972Z,17.00
2018-02-05T11:42:30.422Z,13.23
2018-02-05T11:44:58.177Z,15.53
2018-02-05T11:47:25.626Z,14.10
2018-02-05T11:49:53.094Z,13.80
2018-02-05T11:52:20.830Z,15.20
2018-02-05T11:54:48.293Z,12.77
2018-02-05T11:57:15.789Z,14.67
2018-02-05T11:59:43.921Z,13.00
2018-02-05T12:02:11.376Z,14.10
2018-02-05T12:04:38.821Z,14.47
2018-02-05T12:07:06.895Z,12.10
2018-02-05T12:09:34.349Z,10.63
2018-02-05T12:12:01.800Z,10.07
2018-02-05T12:14:29.892Z,10.97
2018-02-05T12:16:57.356Z,11.93
2018-02-05T12:19:24.814Z,13.73
2018-02-05T12:21:52.551Z,12.43
2018-02-05T12:24:20.025Z,11.17
2018-02-05T12:26:47.469Z,14.30
2018-02-05T12:29:15.573Z,13.20
2018-02-05T12:31:43.029Z,11.30
2018-02-05T12:34:10.476Z,9.97
2018-02-05T12:36:39.791Z,8.47
2018-02-05T12:39:08.232Z,7.60
2018-02-05T12:41:35.689Z,9.13
2018-02-05T12:44:03.392Z,8.43
2018-02-05T12:46:30.832Z,9.50
2018-02-05T12:48:58.284Z,9.57
2018-02-05T12:51:26.131Z,9.13
2018-02-05T12:53:53.578Z,9.00
2018-02-05T12:56:21.025Z,8.93
2018-02-05T12:58:48.770Z,8.67
2018-02-05T13:01:21.776Z,10.20
2018-02-05T13:06:53.695Z,8.30
2018-02-05T13:09:21.463Z,8.70
2018-02-05T13:11:48.906Z,8.97
2018-02-05T13:14:16.344Z,8.53
2018-02-05T13:16:44.355Z,11.77
2018-02-05T13:19:11.817Z,12.27
2018-02-05T13:21:39.286Z,12.70
2018-02-05T13:24:07.061Z,11.57
2018-02-05T13:26:34.805Z,11.07
2018-02-05T13:29:02.244Z,9.53
2018-02-05T13:31:29.988Z,8.00
2018-02-05T13:33:57.441Z,8.10
2018-02-05T13:36:24.907Z,7.93
2018-02-05T13:38:52.730Z,10.00
2018-02-05T13:41:20.827Z,8.40
2018-02-05T13:43:48.269Z,8.90
2018-02-05T13:46:16.327Z,11.00
2018-02-05T13:48:44.058Z,11.80
2018-02-05T13:51:11.513Z,12.63
2018-02-05T13:53:39.271Z,12.40
2018-02-05T13:56:06.721Z,11.00
2018-02-05T13:58:34.181Z,13.20
2018-02-05T14:01:01.967Z,12.60
2018-02-05T14:03:29.433Z,14.83
2018-02-05T14:05:56.883Z,15.60
2018-02-05T14:08:24.656Z,12.30
2018-02-05T14:10:52.103Z,11.20
2018-02-05T14:13:19.545Z,11.03
2018-02-05T14:15:47.368Z,10.90
2018-02-05T14:18:14.820Z,12.63
2018-02-05T14:20:42.269Z,10.70
2018-02-05T14:23:10.025Z,14.13
2018-02-05T14:25:37.520Z,11.90
2018-02-05T14:28:04.936Z,10.53
2018-02-05T14:30:32.901Z,11.00
2018-02-05T14:33:00.373Z,10.60
2018-02-05T14:35:27.818Z,11.73
2018-02-05T14:37:55.708Z,11.53
2018-02-05T14:40:23.157Z,10.87
2018-02-05T14:42:51.313Z,12.03
2018-02-05T14:45:19.316Z,11.47
2018-02-05T14:47:46.780Z,14.07
2018-02-05T14:50:14.235Z,14.20
2018-02-05T14:52:42.011Z,12.23
2018-02-05T14:55:09.468Z,13.20
2018-02-05T14:57:37.949Z,13.67
2018-02-05T15:00:05.920Z,13.83
2018-02-05T15:02:33.380Z,14.17
2018-02-05T15:05:00.878Z,15.83
2018-02-05T15:07:28.610Z,16.37
2018-02-05T15:09:56.061Z,14.10
2018-02-05T15:12:23.554Z,13.87
2018-02-05T15:14:51.296Z,14.33
2018-02-05T15:17:18.745Z,14.17
2018-02-05T15:19:46.197Z,15.70
2018-02-05T15:22:13.990Z,11.97
2018-02-05T15:24:41.561Z,12.97
2018-02-05T15:27:09.010Z,9.10
2018-02-05T15:29:36.969Z,8.87
2018-02-05T15:32:04.408Z,10.07
2018-02-05T15:34:31.857Z,10.90
2018-02-05T15:36:59.684Z,10.43
2018-02-05T15:39:27.199Z,9.63
2018-02-05T15:41:54.660Z,11.30
2018-02-05T15:44:22.954Z,9.90
2018-02-05T15:46:50.401Z,9.63
2018-02-05T15:49:17.846Z,12.20
2018-02-05T15:51:45.656Z,12.23
2018-02-05T15:54:13.119Z,14.40
2018-02-05T15:56:40.575Z,13.67
2018-02-05T15:59:08.335Z,15.37
2018-02-05T16:01:35.781Z,14.00
2018-02-05T16:04:03.237Z,10.50
2018-02-05T16:06:31.029Z,11.00
2018-02-05T16:08:58.486Z,13.63
2018-02-05T16:11:25.944Z,12.07
2018-02-05T16:13:53.785Z,10.37
2018-02-05T16:16:21.228Z,9.40
2018-02-05T16:18:48.684Z,10.50
2018-02-05T16:21:16.407Z,12.07
2018-02-05T16:23:43.860Z,10.70
2018-02-05T16:26:11.324Z,12.20
2018-02-05T16:28:39.094Z,10.20
2018-02-05T16:31:06.559Z,11.27
2018-02-05T16:33:34.012Z,12.43
2018-02-05T16:36:02.069Z,13.67
2018-02-05T16:38:29.519Z,14.33
2018-02-05T16:40:56.981Z,13.03
2018-02-05T16:43:24.759Z,11.30
2018-02-05T16:45:53.546Z,10.87
2018-02-05T16:48:21.001Z,10.60
2018-02-05T16:50:49.037Z,10.07
2018-02-05T16:53:16.492Z,9.67
2018-02-05T16:55:43.934Z,9.70
2018-02-05T16:58:11.670Z,10.97
2018-02-05T17:00:39.127Z,11.33
2018-02-05T17:03:06.701Z,12.27
2018-02-05T17:05:34.444Z,10.47
2018-02-05T17:08:01.901Z,11.43
2018-02-05T17:10:29.353Z,10.10
2018-02-05T17:12:57.048Z,11.20
2018-02-05T17:15:24.504Z,12.27
2018-02-05T17:17:51.945Z,11.20
2018-02-05T17:20:19.744Z,10.03
2018-02-05T17:22:47.188Z,10.50
2018-02-05T17:25:14.636Z,11.93
2018-02-05T17:27:42.430Z,11.50
2018-02-05T17:30:09.880Z,11.83
2018-02-05T17:32:37.340Z,11.23
2018-02-05T17:35:04.973Z,12.17
2018-02-05T17:37:32.422Z,12.77
2018-02-05T17:39:59.890Z,12.60
2018-02-05T17:42:27.816Z,12.47
2018-02-05T17:44:55.281Z,33.20
2018-02-05T17:47:23.416Z,15.00
2018-02-05T17:49:51.181Z,14.47
2018-02-05T17:52:18.685Z,13.73
2018-02-05T17:54:46.144Z,15.83
2018-02-05T17:57:14.097Z,16.77
2018-02-05T17:59:41.545Z,14.60
2018-02-05T18:02:08.996Z,16.80
2018-02-05T18:04:36.769Z,13.00
2018-02-05T18:07:04.289Z,14.70
2018-02-05T18:09:31.736Z,15.73
2018-02-05T18:11:59.779Z,14.87
2018-02-05T18:14:27.501Z,16.20
2018-02-05T18:16:54.980Z,16.90
2018-02-05T18:19:23.068Z,14.00
2018-02-05T18:21:50.757Z,14.70
2018-02-05T18:24:18.204Z,15.93
2018-02-05T18:26:45.980Z,15.17
2018-02-05T18:29:13.436Z,16.37
2018-02-05T18:31:40.897Z,17.13
2018-02-05T18:34:09.064Z,15.33
2018-02-05T18:36:36.712Z,15.17
2018-02-05T18:39:04.200Z,14.60
2018-02-05T18:41:32.717Z,16.83
2018-02-05T18:44:00.168Z,16.70
2018-02-05T18:46:28.116Z,16.67
2018-02-05T18:48:58.752Z,17.23
2018-02-05T18:51:26.212Z,16.00
2018-02-05T18:53:53.745Z,17.43
2018-02-05T18:56:33.282Z,16.17
2018-02-05T18:59:01.105Z,16.30
2018-02-05T19:01:28.567Z,15.63
2018-02-05T19:03:56.709Z,14.73
2018-02-05T19:06:24.152Z,14.47
2018-02-05T19:08:51.609Z,16.17
2018-02-05T19:11:19.280Z,14.67
2018-02-05T19:13:46.730Z,16.17
2018-02-05T19:16:14.184Z,15.80
2018-02-05T19:18:42.092Z,15.53
2018-02-05T19:21:09.557Z,16.10
2018-02-05T19:23:37.017Z,15.93
2018-02-05T19:26:04.983Z,16.70
2018-02-05T19:28:32.545Z,16.70
2018-02-05T19:30:59.991Z,14.47
2018-02-05T19:33:27.783Z,15.07
2018-02-05T19:35:55.335Z,16.77
2018-02-05T19:38:22.848Z,15.67
2018-02-05T19:40:50.458Z,15.80
2018-02-05T19:43:17.918Z,17.47
2018-02-05T19:45:45.385Z,17.13
2018-02-05T19:48:13.442Z,16.67
2018-02-05T19:50:41.291Z,17.00
2018-02-05T19:53:09.595Z,17.00
2018-02-05T19:55:38.454Z,15.83
2018-02-05T19:58:06.056Z,16.67
2018-02-05T20:00:33.563Z,14.27
2018-02-05T20:03:01.590Z,15.30
2018-02-05T20:05:29.511Z,15.73
2018-02-05T20:07:57.696Z,15.73
2018-02-05T20:10:25.502Z,15.57
2018-02-05T20:12:53.267Z,14.83
2018-02-05T20:15:20.724Z,14.97
2018-02-05T20:17:49.141Z,15.97
2018-02-05T20:20:17.322Z,13.47
2018-02-05T20:22:44.826Z,14.80
2018-02-05T20:25:12.461Z,13.73
2018-02-05T20:27:39.904Z,12.03
2018-02-05T20:30:08.409Z,13.17
2018-02-05T20:32:37.705Z,11.70
2018-02-05T20:35:05.231Z,10.33
2018-02-05T20:37:32.688Z,11.37
2018-02-05T20:40:00.567Z,10.30
2018-02-05T20:42:28.689Z,12.70
2018-02-05T20:44:57.058Z,12.17
2018-02-05T20:47:24.780Z,11.97
2018-02-05T20:49:52.247Z,11.60
2018-02-05T20:52:20.843Z,12.87
2018-02-05T20:54:49.468Z,17.83
2018-02-05T20:57:17.940Z,12.70
2018-02-05T20:59:45.395Z,11.57
2018-02-05T21:02:13.840Z,11.83
2018-02-05T21:04:41.293Z,11.60
2018-02-05T21:07:09.232Z,11.40
2018-02-05T21:09:38.321Z,10.57
2018-02-05T21:12:05.865Z,12.13
2018-02-05T21:14:33.964Z,10.13
2018-02-05T21:17:01.980Z,12.30
2018-02-05T21:19:29.657Z,11.27
2018-02-05T21:21:58.346Z,12.13
2018-02-05T21:24:26.865Z,12.60
2018-02-05T21:26:54.596Z,11.40
2018-02-05T21:29:22.045Z,11.33
2018-02-05T21:31:49.816Z,11.27
2018-02-05T21:34:17.272Z,11.27
2018-02-05T21:36:44.733Z,11.93
2018-02-05T21:39:12.493Z,10.10
2018-02-05T21:41:39.941Z,12.47
2018-02-05T21:44:07.401Z,12.47
2018-02-05T21:46:35.036Z,12.77
2018-02-05T21:49:02.511Z,13.60
2018-02-05T21:51:29.958Z,12.77
2018-02-05T21:53:59.716Z,12.67
2018-02-05T21:56:27.163Z,11.17
2018-02-05T21:58:54.612Z,13.83
2018-02-05T22:01:22.411Z,13.57
2018-02-05T22:03:49.868Z,12.60
2018-02-05T22:06:17.319Z,14.20
2018-02-05T22:08:45.033Z,13.40
2018-02-05T22:11:13.509Z,13.20
2018-02-05T22:13:40.997Z,13.37
2018-02-05T22:16:08.697Z,15.00
2018-02-05T22:18:36.156Z,14.57
2018-02-05T22:21:03.616Z,14.30
2018-02-05T22:23:31.384Z,13.57
2018-02-05T22:25:58.854Z,15.30
2018-02-05T22:28:26.312Z,15.37
2018-02-05T22:30:54.065Z,15.50
2018-02-05T22:33:21.531Z,15.97
2018-02-05T22:35:48.997Z,14.97
2018-02-05T22:38:16.669Z,15.37
2018-02-05T22:40:44.162Z,16.07
2018-02-05T22:43:11.617Z,16.03
2018-02-05T22:45:39.437Z,15.40
2018-02-05T22:48:06.886Z,16.00
2018-02-05T22:50:34.361Z,15.70
2018-02-05T22:53:02.314Z,14.53
2018-02-05T22:55:30.281Z,15.60
2018-02-05T22:57:57.729Z,15.77
2018-02-05T23:00:25.433Z,17.20
2018-02-05T23:02:52.881Z,17.40
2018-02-05T23:05:20.329Z,16.23
2018-02-05T23:07:48.045Z,17.70
2018-02-05T23:10:15.498Z,17.47
2018-02-05T23:12:42.944Z,16.97
2018-02-05T23:15:10.897Z,16.60
2018-02-05T23:17:38.360Z,17.27
2018-02-05T23:20:05.903Z,16.50
2018-02-05T23:22:33.581Z,18.00
2018-02-05T23:25:01.033Z,16.67
2018-02-05T23:27:28.486Z,17.77
2018-02-05T23:29:56.179Z,17.20
2018-02-05T23:32:23.628Z,18.40
2018-02-05T23:34:51.079Z,18.10
2018-02-05T23:37:19.189Z,20.00
2018-02-05T23:39:46.645Z,19.37
2018-02-05T23:42:14.108Z,19.70
2018-02-05T23:44:41.859Z,20.50
2018-02-05T23:47:09.311Z,18.77
2018-02-05T23:49:36.768Z,17.30
2018-02-05T23:52:04.541Z,17.90
2018-02-05T23:54:33.949Z,18.13
2018-02-05T23:57:02.912Z,18.00
2018-02-05T23:59:30.618Z,18.80
